createdAt,value
2019-02-25T00:01:33.344Z,3.10
2019-02-25T00:04:04.232Z,3.10
2019-02-25T00:06:35.577Z,3.10
2019-02-25T00:09:07.259Z,3.10
2019-02-25T00:11:38.755Z,3.00
2019-02-25T00:14:09.422Z,3.00
2019-02-25T00:16:40.766Z,3.00
2019-02-25T00:19:12.432Z,3.00
2019-02-25T00:21:43.109Z,2.90
2019-02-25T00:24:13.826Z,2.90
2019-02-25T00:26:44.549Z,2.80
2019-02-25T00:29:15.197Z,2.90
2019-02-25T00:31:45.913Z,2.90
2019-02-25T00:34:16.688Z,2.80
2019-02-25T00:36:47.422Z,2.80
2019-02-25T00:39:18.224Z,2.80
2019-02-25T00:41:48.985Z,2.80
2019-02-25T00:44:19.726Z,2.80
2019-02-25T00:46:50.485Z,2.70
2019-02-25T00:49:21.120Z,2.70
2019-02-25T00:51:52.773Z,2.70
2019-02-25T00:54:23.437Z,2.60
2019-02-25T00:56:54.129Z,2.70
2019-02-25T00:59:24.789Z,2.60
2019-02-25T01:01:56.968Z,2.70
2019-02-25T01:04:27.685Z,2.60
2019-02-25T01:06:58.592Z,2.60
2019-02-25T01:09:29.377Z,2.60
2019-02-25T01:12:00.112Z,2.60
2019-02-25T01:14:30.806Z,2.50
2019-02-25T01:17:01.574Z,2.50
2019-02-25T01:19:32.257Z,2.50
2019-02-25T01:22:03.023Z,2.40
2019-02-25T01:24:33.768Z,2.50
2019-02-25T01:27:04.510Z,2.40
2019-02-25T01:29:35.259Z,2.40
2019-02-25T01:32:06.045Z,2.30
2019-02-25T01:34:39.810Z,2.30
2019-02-25T01:37:10.701Z,2.30
2019-02-25T01:39:41.489Z,2.30
2019-02-25T01:42:13.754Z,2.30
2019-02-25T01:44:44.486Z,2.30
2019-02-25T01:47:15.227Z,2.30
2019-02-25T01:49:45.938Z,2.30
2019-02-25T02:11:03.511Z,2.20
2019-02-25T02:13:34.272Z,2.30
2019-02-25T02:16:05.073Z,2.30
2019-02-25T02:18:36.067Z,2.20
2019-02-25T02:21:07.068Z,2.20
2019-02-25T02:23:37.813Z,2.20
2019-02-25T02:26:08.618Z,2.20
2019-02-25T02:28:39.392Z,2.20
2019-02-25T02:31:10.224Z,2.20
2019-02-25T02:33:40.985Z,2.20
2019-02-25T02:36:11.909Z,2.20
2019-02-25T02:38:42.790Z,2.10
2019-02-25T02:41:13.573Z,2.20
2019-02-25T02:43:44.251Z,2.10
2019-02-25T02:46:50.088Z,2.10
2019-02-25T02:49:20.818Z,2.20
2019-02-25T02:51:51.585Z,2.20
2019-02-25T02:54:22.321Z,2.20
2019-02-25T02:56:53.099Z,2.10
2019-02-25T02:59:23.837Z,2.10
2019-02-25T03:01:54.567Z,2.10
2019-02-25T03:04:26.279Z,2.20
2019-02-25T03:06:58.498Z,2.20
2019-02-25T03:09:29.193Z,2.10
2019-02-25T03:11:59.944Z,2.10
2019-02-25T03:14:30.729Z,2.10
2019-02-25T03:17:01.394Z,2.10
2019-02-25T03:19:32.135Z,2.10
2019-02-25T03:22:02.854Z,2.00
2019-02-25T03:24:33.537Z,2.00
2019-02-25T03:27:04.276Z,2.00
2019-02-25T03:29:34.980Z,1.90
2019-02-25T03:32:05.895Z,1.90
2019-02-25T03:34:36.710Z,1.80
2019-02-25T03:37:07.619Z,1.90
2019-02-25T03:39:38.526Z,1.90
2019-02-25T03:42:09.367Z,1.90
2019-02-25T03:44:40.058Z,1.90
2019-02-25T03:47:10.993Z,1.90
2019-02-25T03:49:41.746Z,1.90
2019-02-25T03:52:12.491Z,1.90
2019-02-25T03:54:43.263Z,2.00
2019-02-25T03:57:14.029Z,2.00
2019-02-25T03:59:44.754Z,1.90
2019-02-25T04:02:15.478Z,1.90
2019-02-25T04:04:47.835Z,1.80
2019-02-25T04:07:18.710Z,1.80
2019-02-25T04:09:49.486Z,1.80
2019-02-25T04:12:20.295Z,1.90
2019-02-25T04:14:51.038Z,1.90
2019-02-25T04:17:22.363Z,2.00
2019-02-25T04:19:53.081Z,2.00
2019-02-25T04:22:23.808Z,1.90
2019-02-25T04:24:54.487Z,1.90
2019-02-25T04:27:25.160Z,1.80
2019-02-25T04:29:55.960Z,1.80
2019-02-25T04:32:27.140Z,1.80
2019-02-25T04:34:57.978Z,1.80
2019-02-25T04:37:29.769Z,1.80
2019-02-25T04:40:00.603Z,1.80
2019-02-25T04:42:31.406Z,1.80
2019-02-25T04:45:02.377Z,1.80
2019-02-25T04:47:33.172Z,1.90
2019-02-25T04:50:03.934Z,1.90
2019-02-25T04:52:34.616Z,1.90
2019-02-25T04:55:05.715Z,1.90
2019-02-25T04:57:36.437Z,1.90
2019-02-25T05:00:12.125Z,1.80
2019-02-25T05:02:43.104Z,1.80
2019-02-25T05:05:13.886Z,1.80
2019-02-25T05:07:44.635Z,1.80
2019-02-25T05:10:16.706Z,1.80
2019-02-25T05:12:58.888Z,1.70
2019-02-25T05:15:31.626Z,1.70
2019-02-25T05:18:02.373Z,1.70
2019-02-25T05:20:33.116Z,1.70
2019-02-25T05:23:03.885Z,1.60
2019-02-25T05:25:34.580Z,1.60
2019-02-25T05:28:05.278Z,1.60
2019-02-25T05:30:36.113Z,1.60
2019-02-25T05:33:06.854Z,1.60
2019-02-25T05:35:37.666Z,1.60
2019-02-25T05:38:08.436Z,1.60
2019-02-25T05:40:39.220Z,1.60
2019-02-25T05:43:09.936Z,1.60
2019-02-25T05:45:40.716Z,1.60
2019-02-25T05:48:11.530Z,1.60
2019-02-25T05:50:42.307Z,1.70
2019-02-25T05:53:13.062Z,1.80
2019-02-25T05:55:43.914Z,2.00
2019-02-25T05:58:14.629Z,2.20
2019-02-25T06:00:45.375Z,2.20
2019-02-25T06:03:16.099Z,2.20
2019-02-25T06:05:46.855Z,2.10
2019-02-25T06:08:17.529Z,2.00
2019-02-25T06:10:48.201Z,1.90
2019-02-25T06:13:18.986Z,1.90
2019-02-25T06:15:51.490Z,1.80
2019-02-25T06:18:22.364Z,1.70
2019-02-25T06:20:53.148Z,1.70
2019-02-25T06:23:23.913Z,1.70
2019-02-25T06:25:54.660Z,1.70
2019-02-25T06:28:25.367Z,1.70
2019-02-25T06:30:56.087Z,1.60
2019-02-25T06:33:26.914Z,1.70
2019-02-25T06:35:57.648Z,1.70
2019-02-25T06:38:28.467Z,1.70
2019-02-25T06:40:59.207Z,1.70
2019-02-25T06:43:30.058Z,1.70
2019-02-25T06:46:00.782Z,1.70
2019-02-25T06:48:31.534Z,1.70
2019-02-25T06:51:02.280Z,1.70
2019-02-25T06:53:33.026Z,1.70
2019-02-25T06:56:04.239Z,1.70
2019-02-25T06:58:35.011Z,1.70
2019-02-25T07:01:05.694Z,1.70
2019-02-25T07:03:36.490Z,1.70
2019-02-25T07:06:15.771Z,1.70
2019-02-25T07:08:52.271Z,1.70
2019-02-25T07:11:51.430Z,1.80
2019-02-25T07:14:41.155Z,1.80
2019-02-25T07:17:23.881Z,1.80
2019-02-25T07:20:16.351Z,1.90
2019-02-25T07:23:05.515Z,1.90
2019-02-25T07:25:55.802Z,1.90
2019-02-25T07:28:44.201Z,2.00
2019-02-25T07:31:33.914Z,2.10
2019-02-25T07:34:32.202Z,2.20
2019-02-25T07:37:23.757Z,2.30
2019-02-25T07:40:23.325Z,2.40
2019-02-25T07:43:11.387Z,2.60
2019-02-25T07:45:58.985Z,2.80
2019-02-25T07:48:51.311Z,2.90
2019-02-25T07:51:52.787Z,3.00
2019-02-25T07:54:40.996Z,3.10
2019-02-25T07:57:33.235Z,3.20
2019-02-25T08:00:13.138Z,3.20
2019-02-25T08:02:55.831Z,3.40
2019-02-25T08:05:44.152Z,3.60
2019-02-25T08:08:25.841Z,3.90
2019-02-25T08:11:08.373Z,4.10
2019-02-25T08:13:55.189Z,4.20
2019-02-25T08:16:44.901Z,4.40
2019-02-25T08:19:30.601Z,4.70
2019-02-25T08:22:38.492Z,5.10
2019-02-25T08:25:30.974Z,5.50
2019-02-25T08:28:20.650Z,5.90
2019-02-25T08:31:03.853Z,6.20
2019-02-25T08:33:59.742Z,6.60
2019-02-25T08:37:19.889Z,7.00
2019-02-25T08:40:13.342Z,7.50
2019-02-25T08:42:51.755Z,8.00
2019-02-25T08:45:28.664Z,8.40
2019-02-25T08:48:12.217Z,8.80
2019-02-25T08:50:43.022Z,9.10
2019-02-25T08:53:13.950Z,9.50
2019-02-25T08:55:44.711Z,9.80
2019-02-25T08:58:16.950Z,10.00
2019-02-25T09:00:47.666Z,10.30
2019-02-25T09:03:19.902Z,10.50
2019-02-25T09:05:50.662Z,10.70
2019-02-25T09:08:21.496Z,10.90
2019-02-25T09:10:52.283Z,11.10
2019-02-25T09:13:24.668Z,11.30
2019-02-25T09:15:55.839Z,11.40
2019-02-25T09:18:26.718Z,11.40
2019-02-25T09:20:57.509Z,11.40
2019-02-25T09:23:28.484Z,11.50
2019-02-25T09:25:59.393Z,11.80
2019-02-25T09:28:30.480Z,11.90
2019-02-25T09:31:02.379Z,12.20
2019-02-25T09:33:33.558Z,12.30
2019-02-25T09:36:04.229Z,12.40
2019-02-25T09:38:36.908Z,12.50
2019-02-25T09:41:07.635Z,12.60
2019-02-25T09:43:38.794Z,12.70
2019-02-25T09:46:09.694Z,12.80
2019-02-25T09:48:42.087Z,12.80
2019-02-25T09:51:13.814Z,12.90
2019-02-25T09:53:44.567Z,13.00
2019-02-25T09:56:15.572Z,13.10
2019-02-25T09:58:46.529Z,13.30
2019-02-25T10:01:17.285Z,13.50
2019-02-25T10:03:48.139Z,13.70
2019-02-25T10:06:18.970Z,13.80
2019-02-25T10:08:50.940Z,13.90
2019-02-25T10:11:21.758Z,14.10
2019-02-25T10:13:52.934Z,14.30
2019-02-25T10:16:23.840Z,14.40
2019-02-25T10:18:54.653Z,14.60
2019-02-25T10:21:25.613Z,14.70
2019-02-25T10:23:56.345Z,14.80
2019-02-25T10:26:27.242Z,14.80
2019-02-25T10:28:58.034Z,14.90
2019-02-25T10:31:28.827Z,15.10
2019-02-25T10:33:59.590Z,15.10
2019-02-25T10:36:30.480Z,15.20
2019-02-25T10:39:01.413Z,15.40
2019-02-25T10:41:33.902Z,15.50
2019-02-25T10:44:06.360Z,15.60
2019-02-25T10:46:39.013Z,15.80
2019-02-25T10:49:11.589Z,15.80
2019-02-25T10:51:43.959Z,16.00
2019-02-25T10:54:16.970Z,16.40
2019-02-25T10:56:51.634Z,16.70
2019-02-25T10:59:23.588Z,17.10
2019-02-25T11:01:54.627Z,17.20
2019-02-25T11:04:26.241Z,17.10
2019-02-25T11:06:58.538Z,17.30
2019-02-25T11:09:50.388Z,17.30
2019-02-25T11:12:21.604Z,17.60
2019-02-25T11:14:53.598Z,17.70
2019-02-25T11:17:24.651Z,17.90
2019-02-25T11:19:56.685Z,18.20
2019-02-25T11:22:57.809Z,18.30
2019-02-25T11:25:32.709Z,18.70
2019-02-25T11:28:05.377Z,18.80
2019-02-25T11:30:36.062Z,18.70
2019-02-25T11:33:06.980Z,18.90
2019-02-25T11:35:39.272Z,19.10
2019-02-25T11:38:10.794Z,19.20
2019-02-25T11:40:41.536Z,19.10
2019-02-25T11:43:13.230Z,19.10
2019-02-25T11:45:44.889Z,19.50
2019-02-25T11:48:15.798Z,19.80
2019-02-25T11:50:46.877Z,20.40
2019-02-25T11:53:17.739Z,21.50
2019-02-25T11:55:48.531Z,21.80
2019-02-25T11:58:19.288Z,22.80
2019-02-25T12:00:50.447Z,23.50
2019-02-25T12:03:22.403Z,23.30
2019-02-25T12:05:54.908Z,23.20
2019-02-25T12:08:26.020Z,23.30
2019-02-25T12:10:56.836Z,24.00
2019-02-25T12:13:28.626Z,24.20
2019-02-25T12:15:59.491Z,24.30
2019-02-25T12:18:30.241Z,24.30
2019-02-25T12:21:01.003Z,23.90
2019-02-25T12:23:32.147Z,23.10
2019-02-25T12:26:04.083Z,23.00
2019-02-25T12:28:34.883Z,22.80
2019-02-25T12:31:05.542Z,23.20
2019-02-25T12:33:55.753Z,23.60
2019-02-25T12:36:26.411Z,24.10
2019-02-25T12:38:58.589Z,24.60
2019-02-25T12:41:29.436Z,24.60
2019-02-25T12:44:00.223Z,24.90
2019-02-25T12:46:30.955Z,24.90
2019-02-25T12:49:02.043Z,25.30
2019-02-25T12:51:33.386Z,25.80
2019-02-25T12:54:34.079Z,25.80
2019-02-25T12:57:06.450Z,25.70
2019-02-25T12:59:38.296Z,25.90
2019-02-25T13:02:09.102Z,26.60
2019-02-25T13:04:40.026Z,26.60
2019-02-25T13:07:10.842Z,27.20
2019-02-25T13:09:41.604Z,26.90
2019-02-25T13:12:12.346Z,27.00
2019-02-25T13:14:43.266Z,27.60
2019-02-25T13:17:14.099Z,27.30
2019-02-25T13:19:45.849Z,27.50
2019-02-25T13:22:16.748Z,27.70
2019-02-25T13:24:48.344Z,27.80
2019-02-25T13:27:19.180Z,27.80
2019-02-25T13:29:50.247Z,28.10
2019-02-25T13:32:21.212Z,28.30
2019-02-25T13:34:52.187Z,28.60
2019-02-25T13:37:22.919Z,28.70
2019-02-25T13:39:53.813Z,28.90
2019-02-25T13:42:24.615Z,29.30
2019-02-25T13:44:55.437Z,29.50
2019-02-25T13:47:26.347Z,29.70
2019-02-25T13:49:57.231Z,29.60
2019-02-25T13:52:28.025Z,28.90
2019-02-25T13:54:58.749Z,28.80
2019-02-25T13:57:29.550Z,27.70
2019-02-25T14:00:00.667Z,27.70
2019-02-25T14:02:31.481Z,28.20
2019-02-25T14:05:02.499Z,28.30
2019-02-25T14:07:34.299Z,28.50
2019-02-25T14:10:07.649Z,28.80
2019-02-25T14:12:38.476Z,28.90
2019-02-25T14:15:09.561Z,29.20
2019-02-25T14:17:40.816Z,28.70
2019-02-25T14:20:13.794Z,28.60
2019-02-25T14:22:44.808Z,28.50
2019-02-25T14:25:19.698Z,28.60
2019-02-25T14:27:49.702Z,28.40
2019-02-25T14:30:22.224Z,28.40
2019-02-25T14:32:53.676Z,28.30
2019-02-25T14:35:28.554Z,28.20
2019-02-25T14:38:04.175Z,27.90
2019-02-25T14:40:32.772Z,28.80
2019-02-25T14:43:05.901Z,28.50
2019-02-25T14:45:36.028Z,27.80
2019-02-25T14:48:08.271Z,28.30
2019-02-25T14:50:40.118Z,27.80
2019-02-25T14:53:14.131Z,27.70
2019-02-25T14:55:46.945Z,27.40
2019-02-25T14:58:17.555Z,26.90
2019-02-25T15:00:49.973Z,27.20
2019-02-25T15:03:22.559Z,26.30
2019-02-25T15:05:56.984Z,24.80
2019-02-25T15:08:28.492Z,24.00
2019-02-25T15:11:02.004Z,24.50
2019-02-25T15:13:33.250Z,25.80
2019-02-25T15:16:05.086Z,26.90
2019-02-25T15:18:36.054Z,27.40
2019-02-25T15:21:09.141Z,27.50
2019-02-25T15:23:40.110Z,27.30
2019-02-25T15:26:11.047Z,27.50
2019-02-25T15:28:42.055Z,27.10
2019-02-25T15:31:14.140Z,26.80
2019-02-25T15:33:46.208Z,26.70
2019-02-25T15:36:17.881Z,26.80
2019-02-25T15:38:49.699Z,27.20
2019-02-25T15:41:20.845Z,26.90
2019-02-25T15:43:51.921Z,26.80
2019-02-25T15:46:24.261Z,26.50
2019-02-25T15:48:56.099Z,26.20
2019-02-25T15:51:28.457Z,25.60
2019-02-25T15:53:59.902Z,25.60
2019-02-25T15:56:30.746Z,25.70
2019-02-25T15:59:01.585Z,25.70
2019-02-25T16:01:32.483Z,25.80
2019-02-25T16:04:04.778Z,25.10
2019-02-25T16:06:37.684Z,25.00
2019-02-25T16:09:10.004Z,24.00
2019-02-25T16:11:45.561Z,22.30
2019-02-25T16:14:16.477Z,20.80
2019-02-25T16:16:47.533Z,19.90
2019-02-25T16:19:18.966Z,19.30
2019-02-25T16:21:50.137Z,18.80
2019-02-25T16:24:20.849Z,18.40
2019-02-25T16:26:53.817Z,18.10
2019-02-25T16:29:24.475Z,17.70
2019-02-25T16:31:57.496Z,17.40
2019-02-25T16:34:27.843Z,17.30
2019-02-25T16:37:00.470Z,17.10
2019-02-25T16:39:33.317Z,17.00
2019-02-25T16:42:04.116Z,16.70
2019-02-25T16:44:35.076Z,16.50
2019-02-25T16:47:07.897Z,16.30
2019-02-25T16:49:38.858Z,16.10
2019-02-25T16:52:09.931Z,16.00
2019-02-25T16:54:40.842Z,15.80
2019-02-25T16:57:11.874Z,15.60
2019-02-25T17:07:34.674Z,14.70
2019-02-25T17:10:28.918Z,14.50
2019-02-25T17:13:14.834Z,14.20
2019-02-25T17:15:46.383Z,14.00
2019-02-25T17:18:17.735Z,13.70
2019-02-25T17:20:50.308Z,13.50
2019-02-25T17:23:22.784Z,13.30
2019-02-25T17:25:54.177Z,13.10
2019-02-25T17:28:27.391Z,12.90
2019-02-25T17:30:58.178Z,12.80
2019-02-25T17:33:30.480Z,12.60
2019-02-25T17:36:01.513Z,12.50
2019-02-25T17:38:32.699Z,12.40
2019-02-25T17:41:05.957Z,12.20
2019-02-25T17:43:36.855Z,12.00
2019-02-25T17:46:09.910Z,11.90
2019-02-25T17:48:42.007Z,11.80
2019-02-25T17:51:12.923Z,11.70
2019-02-25T17:53:45.930Z,11.60
2019-02-25T17:56:18.106Z,11.60
2019-02-25T17:58:49.223Z,11.40
2019-02-25T18:01:21.983Z,11.20
2019-02-25T18:03:52.921Z,11.10
2019-02-25T18:06:29.509Z,11.00
2019-02-25T18:08:57.696Z,10.90
2019-02-25T18:11:29.143Z,10.80
2019-02-25T18:14:01.379Z,10.70
2019-02-25T18:16:35.374Z,10.60
2019-02-25T18:19:06.220Z,10.50
2019-02-25T18:21:38.096Z,10.60
2019-02-25T18:24:10.013Z,10.60
2019-02-25T18:26:41.328Z,10.50
2019-02-25T18:29:16.026Z,10.30
2019-02-25T18:31:46.294Z,10.10
2019-02-25T18:34:18.359Z,10.00
2019-02-25T18:36:51.035Z,9.90
2019-02-25T18:39:23.197Z,9.80
2019-02-25T18:41:55.527Z,9.70
2019-02-25T18:44:29.854Z,9.60
2019-02-25T18:47:01.530Z,9.50
2019-02-25T18:49:34.791Z,9.40
2019-02-25T18:52:05.593Z,9.40
2019-02-25T18:54:39.096Z,9.30
2019-02-25T18:57:22.638Z,9.20
2019-02-25T18:59:59.244Z,9.10
2019-02-25T19:02:33.310Z,9.00
2019-02-25T19:05:07.148Z,8.90
2019-02-25T19:07:41.949Z,8.80
2019-02-25T19:10:16.618Z,8.80
2019-02-25T19:12:49.649Z,8.60
2019-02-25T19:15:21.926Z,8.60
2019-02-25T19:17:54.380Z,8.50
2019-02-25T19:20:25.707Z,8.50
2019-02-25T19:23:00.434Z,8.40
2019-02-25T19:25:29.849Z,8.40
2019-02-25T19:28:01.660Z,8.30
2019-02-25T19:30:34.458Z,8.20
2019-02-25T19:33:11.039Z,8.10
2019-02-25T19:35:40.711Z,8.10
2019-02-25T19:38:14.672Z,8.00
2019-02-25T19:40:50.365Z,7.90
2019-02-25T19:43:19.279Z,7.90
2019-02-25T19:45:51.220Z,7.80
2019-02-25T19:48:26.243Z,7.70
2019-02-25T19:50:56.126Z,7.70
2019-02-25T19:53:31.394Z,7.70
2019-02-25T19:56:03.139Z,7.60
2019-02-25T19:58:36.038Z,7.60
2019-02-25T20:01:09.012Z,7.60
2019-02-25T20:03:42.752Z,7.50
2019-02-25T20:06:15.944Z,7.40
2019-02-25T20:08:46.919Z,7.30
2019-02-25T20:11:18.770Z,7.20
2019-02-25T20:13:49.715Z,7.10
2019-02-25T20:16:22.957Z,7.10
2019-02-25T20:18:56.054Z,7.00
2019-02-25T20:21:28.772Z,6.90
2019-02-25T20:23:59.694Z,6.90
2019-02-25T20:26:32.557Z,6.80
2019-02-25T20:29:04.143Z,6.80
2019-02-25T20:31:36.596Z,6.80
2019-02-25T20:34:08.898Z,6.80
2019-02-25T20:36:39.932Z,6.70
2019-02-25T20:39:10.888Z,6.60
2019-02-25T20:41:43.294Z,6.50
2019-02-25T20:44:14.439Z,6.50
2019-02-25T20:46:48.664Z,6.60
2019-02-25T20:49:20.373Z,6.60
2019-02-25T20:51:52.334Z,6.60
2019-02-25T20:54:23.675Z,6.50
2019-02-25T20:56:55.460Z,6.40
2019-02-25T20:59:28.072Z,6.40
2019-02-25T21:01:58.915Z,6.30
2019-02-25T21:04:29.654Z,6.20
2019-02-25T21:07:02.075Z,6.20
2019-02-25T21:09:35.738Z,6.10
2019-02-25T21:12:08.203Z,6.00
2019-02-25T21:14:41.158Z,6.00
2019-02-25T21:17:13.628Z,5.90
2019-02-25T21:19:44.499Z,5.90
2019-02-25T21:22:15.210Z,5.90
2019-02-25T21:24:46.902Z,5.80
2019-02-25T21:27:17.685Z,5.80
2019-02-25T21:29:48.523Z,5.80
2019-02-25T21:32:19.883Z,5.70
2019-02-25T21:34:52.805Z,5.70
2019-02-25T21:37:25.005Z,5.60
2019-02-25T21:39:58.334Z,5.60
2019-02-25T21:42:30.830Z,5.50
2019-02-25T21:45:02.357Z,5.50
2019-02-25T21:47:35.081Z,5.40
2019-02-25T21:50:09.055Z,5.40
2019-02-25T21:52:41.177Z,5.30
2019-02-25T21:55:11.902Z,5.30
2019-02-25T21:57:42.756Z,5.30
2019-02-25T22:00:15.823Z,5.20
2019-02-25T22:02:48.262Z,5.20
2019-02-25T22:05:21.195Z,5.20
2019-02-25T22:07:54.427Z,5.10
2019-02-25T22:10:24.575Z,5.10
2019-02-25T22:12:55.264Z,5.00
2019-02-25T22:15:25.959Z,5.00
2019-02-25T22:17:56.765Z,4.90
2019-02-25T22:20:27.420Z,4.90
2019-02-25T22:22:59.135Z,4.90
2019-02-25T22:25:30.559Z,4.90
2019-02-25T22:28:03.385Z,4.80
2019-02-25T22:30:36.286Z,4.80
2019-02-25T22:33:12.731Z,4.70
2019-02-25T22:35:40.573Z,4.70
2019-02-25T22:38:12.944Z,4.70
2019-02-25T22:40:43.732Z,4.70
2019-02-25T22:43:16.298Z,4.50
2019-02-25T22:45:46.941Z,4.50
2019-02-25T22:48:19.080Z,4.50
2019-02-25T22:50:53.254Z,4.40
2019-02-25T22:53:22.601Z,4.40
2019-02-25T22:55:54.749Z,4.40
2019-02-25T22:58:25.516Z,4.40
2019-02-25T23:01:05.907Z,4.30
2019-02-25T23:03:40.943Z,4.30
2019-02-25T23:06:13.071Z,4.30
2019-02-25T23:08:48.356Z,4.20
2019-02-25T23:11:19.819Z,4.20
2019-02-25T23:13:50.383Z,4.20
2019-02-25T23:16:24.941Z,4.10
2019-02-25T23:18:54.734Z,4.10
2019-02-25T23:21:26.965Z,4.10
2019-02-25T23:23:58.693Z,4.00
2019-02-25T23:26:30.261Z,4.00
2019-02-25T23:29:00.993Z,4.00
2019-02-25T23:31:31.723Z,3.90
2019-02-25T23:34:02.490Z,3.90
2019-02-25T23:36:33.187Z,3.90
2019-02-25T23:39:05.254Z,3.80
2019-02-25T23:41:39.032Z,3.80
2019-02-25T23:44:12.652Z,3.80
2019-02-25T23:46:42.746Z,3.80
2019-02-25T23:49:13.487Z,3.70
2019-02-25T23:51:45.783Z,3.70
2019-02-25T23:54:18.301Z,3.70
2019-02-25T23:56:50.364Z,3.70
2019-02-25T23:59:23.999Z,3.70
